sensor_id;sensor_type;location;lat;lon;timestamp;pressure;altitude;pressure_sealevel;temperature;humidity
36502;BME280;25393;46.108;3.390;2022-09-27T00:01:25;97015.97;;;11.95;100.00
36502;BME280;25393;46.108;3.390;2022-09-27T00:03:52;97019.66;;;12.01;100.00
36502;BME280;25393;46.108;3.390;2022-09-27T00:06:26;97022.50;;;11.93;100.00
36502;BME280;25393;46.108;3.390;2022-09-27T00:08:56;96999.22;;;11.82;100.00
36502;BME280;25393;46.108;3.390;2022-09-27T00:11:36;97013.50;;;11.87;100.00
36502;BME280;25393;46.108;3.390;2022-09-27T00:14:03;97013.91;;;11.78;100.00
36502;BME280;25393;46.108;3.390;2022-09-27T00:16:34;96994.28;;;11.79;100.00
36502;BME280;25393;46.108;3.390;2022-09-27T00:19:18;97001.03;;;11.81;100.00
36502;BME280;25393;46.108;3.390;2022-09-27T00:21:45;97015.91;;;11.76;100.00
36502;BME280;25393;46.108;3.390;2022-09-27T00:24:14;96993.22;;;11.67;100.00
36502;BME280;25393;46.108;3.390;2022-09-27T00:26:41;96987.91;;;11.60;100.00
36502;BME280;25393;46.108;3.390;2022-09-27T00:29:08;97008.91;;;11.68;100.00
36502;BME280;25393;46.108;3.390;2022-09-27T00:31:36;97001.16;;;11.60;100.00
36502;BME280;25393;46.108;3.390;2022-09-27T00:34:04;97029.59;;;11.73;100.00
36502;BME280;25393;46.108;3.390;2022-09-27T00:36:32;97028.59;;;11.74;100.00
36502;BME280;25393;46.108;3.390;2022-09-27T00:39:01;97006.66;;;11.59;100.00
36502;BME280;25393;46.108;3.390;2022-09-27T00:41:32;97019.13;;;11.65;100.00
36502;BME280;25393;46.108;3.390;2022-09-27T00:44:03;97028.31;;;11.62;100.00
36502;BME280;25393;46.108;3.390;2022-09-27T00:46:46;97034.00;;;11.52;100.00
36502;BME280;25393;46.108;3.390;2022-09-27T00:49:49;97032.59;;;11.63;100.00
36502;BME280;25393;46.108;3.390;2022-09-27T00:54:56;97018.84;;;11.40;100.00
36502;BME280;25393;46.108;3.390;2022-09-27T00:57:24;97007.63;;;11.38;100.00
36502;BME280;25393;46.108;3.390;2022-09-27T01:00:05;97034.16;;;11.44;100.00
36502;BME280;25393;46.108;3.390;2022-09-27T01:02:32;97038.22;;;11.40;100.00
36502;BME280;25393;46.108;3.390;2022-09-27T01:05:04;97030.88;;;11.36;100.00
36502;BME280;25393;46.108;3.390;2022-09-27T01:07:34;97054.53;;;11.37;100.00
36502;BME280;25393;46.108;3.390;2022-09-27T01:10:05;96997.25;;;11.02;100.00
36502;BME280;25393;46.108;3.390;2022-09-27T01:30:08;97053.56;;;11.04;100.00
36502;BME280;25393;46.108;3.390;2022-09-27T01:32:46;97060.44;;;10.98;100.00
36502;BME280;25393;46.108;3.390;2022-09-27T01:36:10;97065.75;;;10.98;100.00
36502;BME280;25393;46.108;3.390;2022-09-27T01:38:16;97061.63;;;10.89;100.00
36502;BME280;25393;46.108;3.390;2022-09-27T01:40:52;97055.50;;;10.89;100.00
36502;BME280;25393;46.108;3.390;2022-09-27T01:43:28;97060.41;;;10.92;100.00
36502;BME280;25393;46.108;3.390;2022-09-27T01:46:10;97071.44;;;10.95;100.00
36502;BME280;25393;46.108;3.390;2022-09-27T01:48:43;97063.28;;;10.90;100.00
36502;BME280;25393;46.108;3.390;2022-09-27T01:51:35;97058.75;;;10.91;100.00
36502;BME280;25393;46.108;3.390;2022-09-27T01:54:06;97043.22;;;10.81;100.00
36502;BME280;25393;46.108;3.390;2022-09-27T01:57:09;97063.50;;;10.95;100.00
36502;BME280;25393;46.108;3.390;2022-09-27T01:59:39;97072.88;;;10.98;100.00
36502;BME280;25393;46.108;3.390;2022-09-27T02:02:08;97062.19;;;10.85;100.00
36502;BME280;25393;46.108;3.390;2022-09-27T02:04:39;97041.56;;;10.80;100.00
36502;BME280;25393;46.108;3.390;2022-09-27T02:07:13;97060.06;;;11.01;100.00
36502;BME280;25393;46.108;3.390;2022-09-27T02:10:15;97068.44;;;11.05;100.00
36502;BME280;25393;46.108;3.390;2022-09-27T02:12:51;97071.59;;;11.15;100.00
36502;BME280;25393;46.108;3.390;2022-09-27T02:15:25;97062.53;;;11.03;100.00
36502;BME280;25393;46.108;3.390;2022-09-27T02:18:09;97075.03;;;11.16;100.00
36502;BME280;25393;46.108;3.390;2022-09-27T02:20:45;97060.63;;;10.90;100.00
36502;BME280;25393;46.108;3.390;2022-09-27T02:23:21;97087.00;;;11.05;100.00
36502;BME280;25393;46.108;3.390;2022-09-27T02:26:00;97070.19;;;10.91;100.00
36502;BME280;25393;46.108;3.390;2022-09-27T02:28:39;97080.66;;;10.99;100.00
36502;BME280;25393;46.108;3.390;2022-09-27T02:31:08;97090.78;;;10.89;100.00
36502;BME280;25393;46.108;3.390;2022-09-27T02:33:48;97083.66;;;10.90;100.00
36502;BME280;25393;46.108;3.390;2022-09-27T02:36:17;97068.47;;;10.77;100.00
36502;BME280;25393;46.108;3.390;2022-09-27T02:38:45;97096.97;;;10.96;100.00
36502;BME280;25393;46.108;3.390;2022-09-27T02:41:17;97095.34;;;11.02;100.00
36502;BME280;25393;46.108;3.390;2022-09-27T02:43:47;97061.13;;;10.73;100.00
36502;BME280;25393;46.108;3.390;2022-09-27T03:00:43;97104.13;;;10.75;100.00
36502;BME280;25393;46.108;3.390;2022-09-27T03:03:15;97106.41;;;10.78;100.00
36502;BME280;25393;46.108;3.390;2022-09-27T03:05:47;97101.13;;;10.84;100.00
36502;BME280;25393;46.108;3.390;2022-09-27T03:08:17;97099.44;;;10.77;100.00
36502;BME280;25393;46.108;3.390;2022-09-27T03:10:44;97099.84;;;10.74;100.00
36502;BME280;25393;46.108;3.390;2022-09-27T03:13:11;97097.63;;;10.77;100.00
36502;BME280;25393;46.108;3.390;2022-09-27T03:15:41;97079.41;;;10.68;100.00
36502;BME280;25393;46.108;3.390;2022-09-27T03:18:07;97117.91;;;10.91;100.00
36502;BME280;25393;46.108;3.390;2022-09-27T03:20:34;97090.06;;;10.74;100.00
36502;BME280;25393;46.108;3.390;2022-09-27T03:23:00;97119.22;;;11.02;100.00
36502;BME280;25393;46.108;3.390;2022-09-27T03:25:27;97083.19;;;10.80;100.00
36502;BME280;25393;46.108;3.390;2022-09-27T03:27:53;97101.41;;;10.89;100.00
36502;BME280;25393;46.108;3.390;2022-09-27T03:30:20;97116.94;;;10.99;100.00
36502;BME280;25393;46.108;3.390;2022-09-27T03:32:46;97111.78;;;10.91;100.00
36502;BME280;25393;46.108;3.390;2022-09-27T03:35:13;97129.44;;;11.05;100.00
36502;BME280;25393;46.108;3.390;2022-09-27T03:37:40;97111.66;;;10.99;100.00
36502;BME280;25393;46.108;3.390;2022-09-27T03:40:07;97100.66;;;11.02;100.00
36502;BME280;25393;46.108;3.390;2022-09-27T03:42:34;97138.13;;;11.20;100.00
36502;BME280;25393;46.108;3.390;2022-09-27T03:45:01;97134.66;;;11.26;100.00
36502;BME280;25393;46.108;3.390;2022-09-27T03:47:27;97120.94;;;11.16;100.00
36502;BME280;25393;46.108;3.390;2022-09-27T03:49:54;97143.88;;;11.30;100.00
36502;BME280;25393;46.108;3.390;2022-09-27T03:52:20;97144.53;;;11.32;100.00
36502;BME280;25393;46.108;3.390;2022-09-27T03:54:47;97107.59;;;11.03;100.00
36502;BME280;25393;46.108;3.390;2022-09-27T03:57:14;97134.50;;;11.28;100.00
36502;BME280;25393;46.108;3.390;2022-09-27T03:59:43;97128.06;;;11.16;100.00
36502;BME280;25393;46.108;3.390;2022-09-27T04:02:13;97130.56;;;11.17;100.00
36502;BME280;25393;46.108;3.390;2022-09-27T04:04:39;97127.03;;;11.10;100.00
36502;BME280;25393;46.108;3.390;2022-09-27T04:07:08;97138.94;;;11.21;100.00
36502;BME280;25393;46.108;3.390;2022-09-27T04:09:35;97139.41;;;11.31;100.00
36502;BME280;25393;46.108;3.390;2022-09-27T04:12:09;97104.16;;;11.09;100.00
36502;BME280;25393;46.108;3.390;2022-09-27T04:14:38;97128.38;;;11.27;100.00
36502;BME280;25393;46.108;3.390;2022-09-27T04:17:04;97101.25;;;10.97;100.00
36502;BME280;25393;46.108;3.390;2022-09-27T04:19:31;97120.94;;;11.16;100.00
36502;BME280;25393;46.108;3.390;2022-09-27T04:21:58;97119.06;;;11.10;100.00
36502;BME280;25393;46.108;3.390;2022-09-27T04:24:24;97127.72;;;11.19;100.00
36502;BME280;25393;46.108;3.390;2022-09-27T04:26:51;97124.03;;;11.20;100.00
36502;BME280;25393;46.108;3.390;2022-09-27T04:29:17;97118.28;;;11.16;100.00
36502;BME280;25393;46.108;3.390;2022-09-27T04:31:44;97116.69;;;11.15;100.00
36502;BME280;25393;46.108;3.390;2022-09-27T04:34:11;97134.47;;;11.21;100.00
36502;BME280;25393;46.108;3.390;2022-09-27T04:36:40;97134.22;;;11.16;100.00
36502;BME280;25393;46.108;3.390;2022-09-27T04:39:07;97107.34;;;10.98;100.00
36502;BME280;25393;46.108;3.390;2022-09-27T04:41:34;97118.22;;;11.03;100.00
36502;BME280;25393;46.108;3.390;2022-09-27T04:44:01;97124.56;;;11.09;100.00
36502;BME280;25393;46.108;3.390;2022-09-27T04:46:28;97118.47;;;11.08;100.00
36502;BME280;25393;46.108;3.390;2022-09-27T04:49:00;97115.94;;;11.00;100.00
36502;BME280;25393;46.108;3.390;2022-09-27T04:51:27;97114.69;;;10.96;100.00
36502;BME280;25393;46.108;3.390;2022-09-27T04:53:55;97141.34;;;11.16;100.00
36502;BME280;25393;46.108;3.390;2022-09-27T04:56:22;97115.31;;;10.98;100.00
36502;BME280;25393;46.108;3.390;2022-09-27T04:58:49;97141.06;;;11.04;100.00
36502;BME280;25393;46.108;3.390;2022-09-27T05:01:15;97131.84;;;11.00;100.00
36502;BME280;25393;46.108;3.390;2022-09-27T05:03:42;97119.16;;;10.95;100.00
36502;BME280;25393;46.108;3.390;2022-09-27T05:06:10;97141.13;;;11.11;100.00
36502;BME280;25393;46.108;3.390;2022-09-27T05:08:37;97141.13;;;11.11;100.00
36502;BME280;25393;46.108;3.390;2022-09-27T05:11:03;97150.28;;;11.08;100.00
36502;BME280;25393;46.108;3.390;2022-09-27T05:13:30;97146.59;;;11.09;100.00
36502;BME280;25393;46.108;3.390;2022-09-27T05:16:03;97147.84;;;11.13;100.00
36502;BME280;25393;46.108;3.390;2022-09-27T05:18:30;97129.22;;;11.00;100.00
36502;BME280;25393;46.108;3.390;2022-09-27T05:20:56;97156.16;;;11.03;100.00
36502;BME280;25393;46.108;3.390;2022-09-27T05:23:25;97128.09;;;10.88;100.00
36502;BME280;25393;46.108;3.390;2022-09-27T05:25:52;97158.56;;;10.98;100.00
36502;BME280;25393;46.108;3.390;2022-09-27T05:28:22;97161.81;;;10.94;100.00
36502;BME280;25393;46.108;3.390;2022-09-27T05:30:49;97146.94;;;10.72;100.00
36502;BME280;25393;46.108;3.390;2022-09-27T05:33:16;97167.56;;;10.76;100.00
36502;BME280;25393;46.108;3.390;2022-09-27T05:35:50;97152.84;;;10.74;100.00
36502;BME280;25393;46.108;3.390;2022-09-27T05:38:17;97173.63;;;10.98;100.00
36502;BME280;25393;46.108;3.390;2022-09-27T05:40:44;97129.50;;;10.63;100.00
36502;BME280;25393;46.108;3.390;2022-09-27T05:43:13;97161.66;;;10.81;100.00
36502;BME280;25393;46.108;3.390;2022-09-27T05:45:40;97141.97;;;10.62;100.00
36502;BME280;25393;46.108;3.390;2022-09-27T05:48:08;97151.22;;;10.73;100.00
36502;BME280;25393;46.108;3.390;2022-09-27T05:50:35;97146.38;;;10.76;100.00
36502;BME280;25393;46.108;3.390;2022-09-27T05:53:04;97157.91;;;10.69;100.00
36502;BME280;25393;46.108;3.390;2022-09-27T05:55:31;97149.69;;;10.64;100.00
36502;BME280;25393;46.108;3.390;2022-09-27T05:58:02;97163.06;;;10.77;100.00
36502;BME280;25393;46.108;3.390;2022-09-27T06:00:30;97149.19;;;10.75;100.00
36502;BME280;25393;46.108;3.390;2022-09-27T06:02:58;97155.38;;;10.82;100.00
36502;BME280;25393;46.108;3.390;2022-09-27T06:05:27;97166.41;;;10.85;100.00
36502;BME280;25393;46.108;3.390;2022-09-27T06:08:08;97158.47;;;10.85;100.00
36502;BME280;25393;46.108;3.390;2022-09-27T06:10:36;97144.50;;;10.77;100.00
36502;BME280;25393;46.108;3.390;2022-09-27T06:13:10;97162.97;;;10.91;100.00
36502;BME280;25393;46.108;3.390;2022-09-27T06:15:39;97163.25;;;10.96;100.00
36502;BME280;25393;46.108;3.390;2022-09-27T06:18:11;97161.38;;;10.90;100.00
36502;BME280;25393;46.108;3.390;2022-09-27T06:20:38;97163.47;;;11.01;100.00
36502;BME280;25393;46.108;3.390;2022-09-27T06:23:10;97140.16;;;10.90;100.00
36502;BME280;25393;46.108;3.390;2022-09-27T06:25:37;97162.84;;;10.99;100.00
36502;BME280;25393;46.108;3.390;2022-09-27T06:28:15;97139.16;;;10.98;100.00
36502;BME280;25393;46.108;3.390;2022-09-27T06:31:04;97173.97;;;11.16;100.00
36502;BME280;25393;46.108;3.390;2022-09-27T06:33:32;97133.63;;;10.93;100.00
36502;BME280;25393;46.108;3.390;2022-09-27T06:36:06;97173.03;;;11.24;100.00
36502;BME280;25393;46.108;3.390;2022-09-27T06:38:33;97173.25;;;11.22;100.00
36502;BME280;25393;46.108;3.390;2022-09-27T06:41:04;97174.72;;;11.31;100.00
36502;BME280;25393;46.108;3.390;2022-09-27T06:43:37;97162.41;;;11.24;100.00
36502;BME280;25393;46.108;3.390;2022-09-27T06:46:04;97170.88;;;11.40;100.00
36502;BME280;25393;46.108;3.390;2022-09-27T06:48:33;97181.31;;;11.42;100.00
36502;BME280;25393;46.108;3.390;2022-09-27T06:51:03;97141.47;;;11.35;100.00
36502;BME280;25393;46.108;3.390;2022-09-27T06:53:29;97156.47;;;11.49;100.00
36502;BME280;25393;46.108;3.390;2022-09-27T06:56:00;97175.22;;;11.48;100.00
36502;BME280;25393;46.108;3.390;2022-09-27T06:58:27;97189.00;;;11.65;100.00
36502;BME280;25393;46.108;3.390;2022-09-27T07:01:25;97155.78;;;11.41;100.00
36502;BME280;25393;46.108;3.390;2022-09-27T07:03:57;97191.44;;;11.60;100.00
36502;BME280;25393;46.108;3.390;2022-09-27T07:06:24;97193.06;;;11.61;100.00
36502;BME280;25393;46.108;3.390;2022-09-27T07:08:52;97199.44;;;11.66;100.00
36502;BME280;25393;46.108;3.390;2022-09-27T07:11:22;97169.78;;;11.56;100.00
36502;BME280;25393;46.108;3.390;2022-09-27T07:13:52;97192.19;;;11.81;100.00
36502;BME280;25393;46.108;3.390;2022-09-27T07:16:20;97192.25;;;11.94;100.00
36502;BME280;25393;46.108;3.390;2022-09-27T07:18:49;97164.59;;;11.82;100.00
36502;BME280;25393;46.108;3.390;2022-09-27T07:21:18;97182.22;;;11.90;100.00
36502;BME280;25393;46.108;3.390;2022-09-27T07:23:48;97187.78;;;12.01;100.00
36502;BME280;25393;46.108;3.390;2022-09-27T07:26:17;97205.66;;;12.21;100.00
36502;BME280;25393;46.108;3.390;2022-09-27T07:28:44;97198.72;;;12.33;100.00
36502;BME280;25393;46.108;3.390;2022-09-27T07:31:11;97187.06;;;12.27;100.00
36502;BME280;25393;46.108;3.390;2022-09-27T07:33:38;97198.53;;;12.28;100.00
36502;BME280;25393;46.108;3.390;2022-09-27T07:36:09;97209.09;;;12.15;100.00
36502;BME280;25393;46.108;3.390;2022-09-27T07:38:36;97195.75;;;12.01;100.00
36502;BME280;25393;46.108;3.390;2022-09-27T07:41:08;97211.81;;;12.28;100.00
36502;BME280;25393;46.108;3.390;2022-09-27T07:43:35;97209.53;;;12.25;100.00
36502;BME280;25393;46.108;3.390;2022-09-27T07:46:02;97217.72;;;12.30;100.00
36502;BME280;25393;46.108;3.390;2022-09-27T07:48:28;97215.66;;;12.25;100.00
36502;BME280;25393;46.108;3.390;2022-09-27T07:50:55;97215.06;;;12.23;100.00
36502;BME280;25393;46.108;3.390;2022-09-27T07:53:21;97216.91;;;12.29;100.00
36502;BME280;25393;46.108;3.390;2022-09-27T07:55:51;97202.50;;;12.71;100.00
36502;BME280;25393;46.108;3.390;2022-09-27T07:58:23;97192.53;;;13.45;97.02
36502;BME280;25393;46.108;3.390;2022-09-27T08:00:52;97187.25;;;14.10;90.81
36502;BME280;25393;46.108;3.390;2022-09-27T08:03:22;97216.78;;;14.90;91.34
36502;BME280;25393;46.108;3.390;2022-09-27T08:05:51;97217.00;;;15.38;87.91
36502;BME280;25393;46.108;3.390;2022-09-27T08:08:18;97207.41;;;15.06;77.65
36502;BME280;25393;46.108;3.390;2022-09-27T08:10:46;97202.72;;;14.77;80.50
36502;BME280;25393;46.108;3.390;2022-09-27T08:13:14;97215.03;;;15.02;77.36
36502;BME280;25393;46.108;3.390;2022-09-27T08:15:43;97221.03;;;14.60;77.93
36502;BME280;25393;46.108;3.390;2022-09-27T08:18:09;97210.00;;;14.57;80.25
36502;BME280;25393;46.108;3.390;2022-09-27T08:20:36;97226.22;;;14.55;80.33
36502;BME280;25393;46.108;3.390;2022-09-27T08:23:03;97218.91;;;14.37;81.96
36502;BME280;25393;46.108;3.390;2022-09-27T08:25:30;97225.50;;;14.35;81.85
36502;BME280;25393;46.108;3.390;2022-09-27T08:28:00;97233.28;;;14.30;83.29
36502;BME280;25393;46.108;3.390;2022-09-27T08:30:28;97225.06;;;14.31;83.80
36502;BME280;25393;46.108;3.390;2022-09-27T08:33:00;97232.66;;;14.41;84.65
36502;BME280;25393;46.108;3.390;2022-09-27T08:35:28;97205.19;;;14.34;82.13
36502;BME280;25393;46.108;3.390;2022-09-27T08:37:58;97207.03;;;14.27;79.21
36502;BME280;25393;46.108;3.390;2022-09-27T08:43:35;97227.97;;;14.23;81.54
36502;BME280;25393;46.108;3.390;2022-09-27T08:48:41;97226.06;;;14.43;81.30
36502;BME280;25393;46.108;3.390;2022-09-27T08:51:12;97224.97;;;14.58;79.64
36502;BME280;25393;46.108;3.390;2022-09-27T08:53:43;97209.97;;;14.63;79.90
36502;BME280;25393;46.108;3.390;2022-09-27T08:56:13;97216.72;;;14.66;77.84
36502;BME280;25393;46.108;3.390;2022-09-27T09:01:15;97224.94;;;14.64;79.19
36502;BME280;25393;46.108;3.390;2022-09-27T09:03:46;97229.53;;;14.82;82.49
36502;BME280;25393;46.108;3.390;2022-09-27T09:06:18;97225.28;;;14.74;77.58
36502;BME280;25393;46.108;3.390;2022-09-27T09:12:31;97214.94;;;14.91;76.02
36502;BME280;25393;46.108;3.390;2022-09-27T09:20:30;97236.97;;;14.80;73.76
36502;BME280;25393;46.108;3.390;2022-09-27T09:33:53;97242.97;;;15.00;73.28
36502;BME280;25393;46.108;3.390;2022-09-27T09:36:28;97221.78;;;14.80;73.38
36502;BME280;25393;46.108;3.390;2022-09-27T09:39:02;97234.81;;;14.95;73.05
36502;BME280;25393;46.108;3.390;2022-09-27T09:41:37;97240.06;;;15.08;74.33
36502;BME280;25393;46.108;3.390;2022-09-27T09:44:20;97241.03;;;15.14;72.79
36502;BME280;25393;46.108;3.390;2022-09-27T09:46:53;97222.84;;;15.04;73.53
36502;BME280;25393;46.108;3.390;2022-09-27T09:51:58;97215.81;;;15.34;72.26
36502;BME280;25393;46.108;3.390;2022-09-27T09:54:41;97234.75;;;15.58;69.92
36502;BME280;25393;46.108;3.390;2022-09-27T09:57:19;97222.09;;;15.46;70.56
36502;BME280;25393;46.108;3.390;2022-09-27T09:59:59;97230.09;;;15.46;68.29
36502;BME280;25393;46.108;3.390;2022-09-27T10:02:41;97220.13;;;15.35;67.88
36502;BME280;25393;46.108;3.390;2022-09-27T10:05:13;97234.91;;;15.63;67.10
36502;BME280;25393;46.108;3.390;2022-09-27T10:07:40;97230.31;;;15.52;67.36
36502;BME280;25393;46.108;3.390;2022-09-27T10:10:09;97232.59;;;15.41;69.58
36502;BME280;25393;46.108;3.390;2022-09-27T10:12:38;97213.63;;;15.25;66.91
36502;BME280;25393;46.108;3.390;2022-09-27T10:15:06;97224.94;;;15.27;67.64
36502;BME280;25393;46.108;3.390;2022-09-27T10:17:41;97222.75;;;15.42;70.46
36502;BME280;25393;46.108;3.390;2022-09-27T10:23:08;97212.69;;;15.19;70.94
36502;BME280;25393;46.108;3.390;2022-09-27T10:26:00;97230.91;;;15.22;69.51
36502;BME280;25393;46.108;3.390;2022-09-27T10:28:37;97234.56;;;15.28;68.70
36502;BME280;25393;46.108;3.390;2022-09-27T10:31:12;97227.69;;;15.38;69.04
36502;BME280;25393;46.108;3.390;2022-09-27T10:34:01;97215.66;;;15.29;67.91
36502;BME280;25393;46.108;3.390;2022-09-27T10:36:30;97201.63;;;15.16;67.57
36502;BME280;25393;46.108;3.390;2022-09-27T10:39:03;97219.16;;;15.30;68.52
36502;BME280;25393;46.108;3.390;2022-09-27T10:47:08;97211.84;;;15.19;68.19
36502;BME280;25393;46.108;3.390;2022-09-27T10:49:41;97209.38;;;15.17;68.37
36502;BME280;25393;46.108;3.390;2022-09-27T10:52:16;97223.44;;;15.31;68.62
36502;BME280;25393;46.108;3.390;2022-09-27T10:54:54;97222.66;;;14.99;68.56
36502;BME280;25393;46.108;3.390;2022-09-27T10:57:26;97226.75;;;15.02;67.30
36502;BME280;25393;46.108;3.390;2022-09-27T10:59:56;97212.03;;;14.92;68.99
36502;BME280;25393;46.108;3.390;2022-09-27T11:02:33;97223.03;;;15.02;67.55
36502;BME280;25393;46.108;3.390;2022-09-27T11:08:02;97217.50;;;15.04;66.35
36502;BME280;25393;46.108;3.390;2022-09-27T11:11:11;97215.97;;;14.90;67.18
36502;BME280;25393;46.108;3.390;2022-09-27T11:14:24;97212.72;;;14.81;69.03
36502;BME280;25393;46.108;3.390;2022-09-27T11:19:52;97205.91;;;14.85;65.24
36502;BME280;25393;46.108;3.390;2022-09-27T11:27:58;97194.03;;;15.37;65.17
36502;BME280;25393;46.108;3.390;2022-09-27T11:31:14;97179.06;;;15.61;62.56
36502;BME280;25393;46.108;3.390;2022-09-27T11:33:31;97196.78;;;15.74;61.57
36502;BME280;25393;46.108;3.390;2022-09-27T11:36:36;97189.19;;;15.53;61.60
36502;BME280;25393;46.108;3.390;2022-09-27T11:44:54;97185.16;;;15.68;63.61
36502;BME280;25393;46.108;3.390;2022-09-27T11:53:41;97179.03;;;16.16;62.44
36502;BME280;25393;46.108;3.390;2022-09-27T11:56:40;97188.34;;;15.95;60.28
36502;BME280;25393;46.108;3.390;2022-09-27T12:04:52;97180.63;;;15.44;62.27
36502;BME280;25393;46.108;3.390;2022-09-27T12:10:03;97189.63;;;15.25;59.75
36502;BME280;25393;46.108;3.390;2022-09-27T12:12:37;97182.22;;;15.02;61.87
36502;BME280;25393;46.108;3.390;2022-09-27T12:15:17;97192.34;;;14.93;62.06
36502;BME280;25393;46.108;3.390;2022-09-27T12:17:48;97198.06;;;14.97;62.62
36502;BME280;25393;46.108;3.390;2022-09-27T12:20:22;97192.34;;;14.62;63.28
36502;BME280;25393;46.108;3.390;2022-09-27T12:22:57;97196.53;;;14.45;63.51
36502;BME280;25393;46.108;3.390;2022-09-27T12:25:30;97184.47;;;14.29;67.22
36502;BME280;25393;46.108;3.390;2022-09-27T12:28:11;97178.69;;;14.45;64.99
36502;BME280;25393;46.108;3.390;2022-09-27T12:30:44;97176.88;;;14.33;65.81
36502;BME280;25393;46.108;3.390;2022-09-27T12:33:46;97185.25;;;14.43;65.19
36502;BME280;25393;46.108;3.390;2022-09-27T12:36:15;97184.41;;;14.49;65.60
36502;BME280;25393;46.108;3.390;2022-09-27T12:39:05;97172.13;;;14.79;65.82
36502;BME280;25393;46.108;3.390;2022-09-27T12:41:39;97180.84;;;15.18;65.73
36502;BME280;25393;46.108;3.390;2022-09-27T12:44:11;97161.66;;;16.25;63.88
36502;BME280;25393;46.108;3.390;2022-09-27T12:46:58;97154.50;;;17.31;59.25
36502;BME280;25393;46.108;3.390;2022-09-27T12:50:11;97162.78;;;17.53;57.77
36502;BME280;25393;46.108;3.390;2022-09-27T12:52:42;97153.81;;;17.36;55.50
36502;BME280;25393;46.108;3.390;2022-09-27T13:01:08;97166.06;;;17.55;56.06
36502;BME280;25393;46.108;3.390;2022-09-27T13:07:03;97178.91;;;16.88;57.11
36502;BME280;25393;46.108;3.390;2022-09-27T13:12:28;97176.97;;;15.81;56.47
36502;BME280;25393;46.108;3.390;2022-09-27T13:15:12;97178.19;;;15.85;57.52
36502;BME280;25393;46.108;3.390;2022-09-27T13:31:14;97175.03;;;15.70;56.00
36502;BME280;25393;46.108;3.390;2022-09-27T13:33:47;97167.63;;;15.72;57.97
36502;BME280;25393;46.108;3.390;2022-09-27T13:46:54;97153.06;;;15.25;60.09
36502;BME280;25393;46.108;3.390;2022-09-27T13:49:39;97160.09;;;14.95;58.86
36502;BME280;25393;46.108;3.390;2022-09-27T13:52:29;97159.22;;;14.76;60.38
36502;BME280;25393;46.108;3.390;2022-09-27T13:55:02;97173.56;;;14.75;60.24
36502;BME280;25393;46.108;3.390;2022-09-27T13:57:46;97157.88;;;14.61;60.90
36502;BME280;25393;46.108;3.390;2022-09-27T14:00:19;97144.88;;;14.46;59.54
36502;BME280;25393;46.108;3.390;2022-09-27T14:06:01;97158.22;;;14.33;59.59
36502;BME280;25393;46.108;3.390;2022-09-27T14:08:46;97151.31;;;14.19;62.11
36502;BME280;25393;46.108;3.390;2022-09-27T14:11:20;97128.78;;;14.21;62.00
36502;BME280;25393;46.108;3.390;2022-09-27T14:13:50;97126.69;;;14.23;62.64
36502;BME280;25393;46.108;3.390;2022-09-27T14:16:17;97156.28;;;14.53;60.76
36502;BME280;25393;46.108;3.390;2022-09-27T14:18:52;97132.72;;;14.50;61.85
36502;BME280;25393;46.108;3.390;2022-09-27T14:21:35;97160.09;;;14.64;61.62
36502;BME280;25393;46.108;3.390;2022-09-27T14:26:50;97162.75;;;14.70;62.75
36502;BME280;25393;46.108;3.390;2022-09-27T14:29:31;97169.94;;;14.70;62.67
36502;BME280;25393;46.108;3.390;2022-09-27T14:32:05;97163.78;;;14.69;62.76
36502;BME280;25393;46.108;3.390;2022-09-27T14:34:35;97132.91;;;14.55;62.86
36502;BME280;25393;46.108;3.390;2022-09-27T14:37:01;97137.22;;;14.56;63.49
36502;BME280;25393;46.108;3.390;2022-09-27T14:42:24;97136.06;;;14.32;64.84
36502;BME280;25393;46.108;3.390;2022-09-27T14:44:52;97123.25;;;14.16;65.08
36502;BME280;25393;46.108;3.390;2022-09-27T14:47:23;97145.09;;;14.38;65.45
36502;BME280;25393;46.108;3.390;2022-09-27T14:50:00;97150.44;;;14.38;65.50
36502;BME280;25393;46.108;3.390;2022-09-27T14:52:33;97151.41;;;14.43;66.03
36502;BME280;25393;46.108;3.390;2022-09-27T14:55:06;97143.72;;;14.60;65.38
36502;BME280;25393;46.108;3.390;2022-09-27T14:57:33;97101.66;;;14.62;64.71
36502;BME280;25393;46.108;3.390;2022-09-27T15:00:17;97142.59;;;14.99;63.84
36502;BME280;25393;46.108;3.390;2022-09-27T15:02:45;97146.38;;;15.16;62.66
36502;BME280;25393;46.108;3.390;2022-09-27T15:05:15;97153.19;;;15.12;63.57
36502;BME280;25393;46.108;3.390;2022-09-27T15:07:44;97151.44;;;15.24;63.56
36502;BME280;25393;46.108;3.390;2022-09-27T15:10:17;97145.31;;;15.17;63.60
36502;BME280;25393;46.108;3.390;2022-09-27T15:12:46;97141.19;;;15.21;61.89
36502;BME280;25393;46.108;3.390;2022-09-27T15:15:25;97149.63;;;15.18;62.84
36502;BME280;25393;46.108;3.390;2022-09-27T15:17:53;97146.31;;;15.23;63.44
36502;BME280;25393;46.108;3.390;2022-09-27T15:20:28;97143.09;;;15.14;64.18
36502;BME280;25393;46.108;3.390;2022-09-27T15:23:04;97138.97;;;15.18;65.12
36502;BME280;25393;46.108;3.390;2022-09-27T15:25:41;97131.19;;;15.60;64.03
36502;BME280;25393;46.108;3.390;2022-09-27T15:28:17;97125.03;;;15.95;63.74
36502;BME280;25393;46.108;3.390;2022-09-27T15:30:53;97124.81;;;16.27;59.51
36502;BME280;25393;46.108;3.390;2022-09-27T15:33:27;97117.88;;;16.37;60.60
36502;BME280;25393;46.108;3.390;2022-09-27T15:35:56;97120.53;;;16.56;62.53
36502;BME280;25393;46.108;3.390;2022-09-27T15:41:13;97115.75;;;16.28;61.06
36502;BME280;25393;46.108;3.390;2022-09-27T15:43:50;97118.25;;;16.11;61.78
36502;BME280;25393;46.108;3.390;2022-09-27T15:51:47;97121.75;;;15.14;63.76
36502;BME280;25393;46.108;3.390;2022-09-27T15:54:22;97117.75;;;15.05;65.52
36502;BME280;25393;46.108;3.390;2022-09-27T15:56:50;97122.91;;;15.00;66.33
36502;BME280;25393;46.108;3.390;2022-09-27T15:59:26;97120.63;;;15.04;66.71
36502;BME280;25393;46.108;3.390;2022-09-27T16:01:55;97118.13;;;14.84;65.08